createdAt,value
2023-04-18T00:00:51.999Z,9.38
2023-04-18T00:02:56.849Z,9.22
2023-04-18T00:05:00.378Z,9.37
2023-04-18T00:07:04.814Z,9.27
2023-04-18T00:09:10.058Z,9.38
2023-04-18T00:11:14.854Z,9.39
2023-04-18T00:13:19.279Z,9.37
2023-04-18T00:15:22.342Z,9.19
2023-04-18T00:17:28.104Z,9.29
2023-04-18T00:19:34.243Z,9.16
2023-04-18T00:21:37.990Z,9.17
2023-04-18T00:23:41.739Z,9.13
2023-04-18T00:25:45.324Z,9.00
2023-04-18T00:27:48.955Z,9.07
2023-04-18T00:29:51.821Z,8.98
2023-04-18T00:31:57.256Z,9.01
2023-04-18T00:34:04.634Z,9.04
2023-04-18T00:36:13.249Z,8.95
2023-04-18T00:38:18.868Z,8.99
2023-04-18T00:40:28.958Z,9.00
2023-04-18T00:42:35.006Z,9.02
2023-04-18T00:44:38.470Z,8.84
2023-04-18T00:46:41.486Z,8.87
2023-04-18T00:48:45.728Z,8.87
2023-04-18T00:50:48.908Z,8.89
2023-04-18T00:52:55.009Z,8.82
2023-04-18T00:54:58.123Z,8.72
2023-04-18T00:57:02.404Z,8.74
2023-04-18T00:59:06.658Z,8.75
2023-04-18T01:01:10.879Z,8.75
2023-04-18T01:03:19.848Z,8.70
2023-04-18T01:05:27.195Z,8.69
2023-04-18T01:07:31.845Z,8.71
2023-04-18T01:09:36.982Z,8.72
2023-04-18T01:11:41.230Z,8.74
2023-04-18T01:13:59.844Z,8.73
2023-04-18T01:16:05.692Z,8.60
2023-04-18T01:18:09.903Z,8.51
2023-04-18T01:20:16.799Z,8.52
2023-04-18T01:22:21.259Z,8.53
2023-04-18T01:24:26.797Z,8.48
2023-04-18T01:26:31.595Z,8.55
2023-04-18T01:28:40.062Z,8.51
2023-04-18T01:30:44.779Z,8.45
2023-04-18T01:32:48.365Z,8.47
2023-04-18T01:34:57.163Z,8.51
2023-04-18T01:37:01.136Z,8.60
2023-04-18T01:39:04.830Z,8.50
2023-04-18T01:41:10.366Z,8.52
2023-04-18T01:43:15.208Z,8.58
2023-04-18T01:45:20.749Z,8.54
2023-04-18T01:47:23.926Z,8.59
2023-04-18T01:49:26.888Z,8.55
2023-04-18T01:51:30.360Z,8.55
2023-04-18T01:53:34.105Z,8.61
2023-04-18T01:55:39.234Z,8.60
2023-04-18T01:57:47.529Z,8.56
2023-04-18T01:59:52.625Z,8.55
2023-04-18T02:01:56.574Z,8.50
2023-04-18T02:04:03.826Z,8.45
2023-04-18T02:06:08.734Z,8.44
2023-04-18T02:08:12.337Z,8.48
2023-04-18T02:10:16.907Z,8.44
2023-04-18T02:12:21.092Z,8.46
2023-04-18T02:14:27.390Z,8.52
2023-04-18T02:16:30.501Z,8.48
2023-04-18T02:18:34.669Z,8.37
2023-04-18T02:20:38.035Z,8.36
2023-04-18T02:26:17.569Z,8.43
2023-04-18T02:28:20.571Z,8.32
2023-04-18T02:30:27.525Z,8.19
2023-04-18T02:32:31.202Z,8.21
2023-04-18T02:34:36.192Z,8.24
2023-04-18T02:36:39.714Z,8.26
2023-04-18T02:38:42.572Z,8.20
2023-04-18T02:40:45.701Z,8.23
2023-04-18T02:42:48.715Z,8.29
2023-04-18T02:44:51.558Z,8.33
2023-04-18T02:46:55.881Z,8.27
2023-04-18T02:48:58.921Z,8.22
2023-04-18T02:51:04.390Z,8.24
2023-04-18T02:53:09.560Z,8.34
2023-04-18T02:55:28.412Z,8.27
2023-04-18T02:57:34.423Z,8.27
2023-04-18T03:00:07.896Z,8.32
2023-04-18T03:02:18.841Z,8.29
2023-04-18T03:04:27.578Z,8.39
2023-04-18T03:06:36.439Z,8.23
2023-04-18T03:08:39.366Z,8.23
2023-04-18T03:10:43.468Z,8.19
2023-04-18T03:12:47.643Z,8.14
2023-04-18T03:14:52.732Z,8.14
2023-04-18T03:16:56.665Z,8.01
2023-04-18T03:19:06.221Z,7.90
2023-04-18T03:21:09.813Z,8.00
2023-04-18T03:23:12.982Z,8.00
2023-04-18T03:25:16.112Z,7.90
2023-04-18T03:27:27.111Z,7.92
2023-04-18T03:29:30.112Z,8.03
2023-04-18T03:31:33.656Z,7.97
2023-04-18T03:33:36.874Z,7.98
2023-04-18T03:35:46.478Z,7.92
2023-04-18T03:37:49.441Z,7.80
2023-04-18T03:40:01.336Z,7.95
2023-04-18T03:42:06.046Z,7.90
2023-04-18T03:44:10.489Z,8.00
2023-04-18T03:46:16.229Z,7.85
2023-04-18T03:48:19.450Z,7.89
2023-04-18T03:50:24.672Z,7.88
2023-04-18T03:52:31.370Z,7.90
2023-04-18T03:54:34.235Z,7.90
2023-04-18T03:56:37.270Z,8.00
2023-04-18T03:58:40.321Z,7.94
2023-04-18T04:00:43.296Z,8.03
2023-04-18T04:02:47.322Z,7.96
2023-04-18T04:04:56.175Z,7.98
2023-04-18T04:06:59.520Z,8.10
2023-04-18T04:09:03.982Z,8.10
2023-04-18T04:11:06.996Z,8.09
2023-04-18T04:13:09.911Z,8.13
2023-04-18T04:15:15.535Z,8.18
2023-04-18T04:17:25.415Z,8.27
2023-04-18T04:19:28.917Z,8.29
2023-04-18T04:21:42.874Z,8.18
2023-04-18T04:23:49.075Z,8.25
2023-04-18T04:26:04.647Z,8.33
2023-04-18T04:28:19.262Z,8.21
2023-04-18T04:30:29.878Z,8.34
2023-04-18T04:32:33.258Z,8.41
2023-04-18T04:34:36.828Z,8.30
2023-04-18T04:36:43.863Z,8.37
2023-04-18T04:38:49.180Z,8.35
2023-04-18T04:40:58.160Z,8.33
2023-04-18T04:43:02.344Z,8.32
2023-04-18T04:45:12.478Z,8.44
2023-04-18T04:47:15.424Z,8.51
2023-04-18T04:49:18.534Z,8.64
2023-04-18T04:51:21.400Z,8.46
2023-04-18T04:53:24.722Z,8.39
2023-04-18T04:55:27.720Z,8.48
2023-04-18T04:57:30.779Z,8.59
2023-04-18T04:59:35.595Z,8.59
2023-04-18T05:01:38.673Z,8.59
2023-04-18T05:03:41.829Z,8.49
2023-04-18T05:05:44.840Z,8.55
2023-04-18T05:07:47.691Z,8.55
2023-04-18T05:09:53.125Z,8.64
2023-04-18T05:11:56.031Z,8.62
2023-04-18T05:13:59.696Z,8.52
2023-04-18T05:16:06.007Z,8.45
2023-04-18T05:18:08.948Z,8.53
2023-04-18T05:20:12.417Z,8.37
2023-04-18T05:22:15.270Z,8.39
2023-04-18T05:24:18.134Z,8.52
2023-04-18T05:26:21.089Z,8.60
2023-04-18T05:28:24.816Z,8.54
2023-04-18T05:30:27.713Z,8.55
2023-04-18T05:32:32.338Z,8.67
2023-04-18T05:34:38.678Z,8.48
2023-04-18T05:36:42.159Z,8.51
2023-04-18T05:38:45.034Z,8.50
2023-04-18T05:40:47.877Z,8.56
2023-04-18T05:42:51.238Z,8.54
2023-04-18T05:44:54.130Z,8.55
2023-04-18T05:46:57.272Z,8.57
2023-04-18T05:49:01.546Z,8.55
2023-04-18T05:51:05.868Z,8.67
2023-04-18T05:53:09.008Z,8.82
2023-04-18T05:55:11.966Z,8.84
2023-04-18T05:57:15.163Z,8.71
2023-04-18T05:59:18.226Z,8.65
2023-04-18T06:01:21.510Z,8.66
2023-04-18T06:03:25.049Z,8.82
2023-04-18T06:05:30.405Z,8.88
2023-04-18T06:07:33.579Z,9.03
2023-04-18T06:09:36.561Z,8.93
2023-04-18T06:11:39.366Z,9.04
2023-04-18T06:13:42.552Z,8.93
2023-04-18T06:15:45.551Z,8.95
2023-04-18T06:17:49.258Z,9.00
2023-04-18T06:19:52.149Z,8.92
2023-04-18T06:21:56.396Z,9.02
2023-04-18T06:24:01.398Z,9.03
2023-04-18T06:26:04.296Z,9.03
2023-04-18T06:28:07.193Z,9.05
2023-04-18T06:30:10.717Z,9.06
2023-04-18T06:32:13.566Z,8.92
2023-04-18T06:34:16.560Z,8.99
2023-04-18T06:36:19.655Z,8.99
2023-04-18T06:38:24.152Z,9.04
2023-04-18T06:40:27.104Z,9.07
2023-04-18T06:42:29.989Z,8.94
2023-04-18T06:44:33.222Z,9.03
2023-04-18T06:46:39.184Z,9.10
2023-04-18T06:48:42.256Z,9.08
2023-04-18T06:50:45.657Z,9.10
2023-04-18T06:52:48.560Z,9.24
2023-04-18T06:54:52.808Z,9.33
2023-04-18T06:56:56.039Z,9.36
2023-04-18T06:58:58.913Z,9.27
2023-04-18T07:01:01.897Z,9.25
2023-04-18T07:03:11.422Z,9.47
2023-04-18T07:05:14.948Z,9.49
2023-04-18T07:07:18.348Z,9.46
2023-04-18T07:09:22.570Z,9.27
2023-04-18T07:11:27.150Z,9.21
2023-04-18T07:13:30.094Z,9.32
2023-04-18T07:15:33.030Z,9.42
2023-04-18T07:17:36.030Z,9.35
2023-04-18T07:19:39.430Z,9.46
2023-04-18T07:21:43.821Z,9.41
2023-04-18T07:23:47.619Z,9.41
2023-04-18T07:25:50.611Z,9.54
2023-04-18T07:27:56.004Z,9.50
2023-04-18T07:30:00.589Z,9.47
2023-04-18T07:32:05.181Z,9.48
2023-04-18T07:34:09.153Z,9.34
2023-04-18T07:36:12.167Z,9.33
2023-04-18T07:38:16.641Z,9.65
2023-04-18T07:40:19.770Z,9.50
2023-04-18T07:42:22.921Z,9.63
2023-04-18T07:44:27.784Z,9.57
2023-04-18T07:46:32.403Z,9.51
2023-04-18T07:48:35.368Z,9.59
2023-04-18T07:50:38.584Z,9.64
2023-04-18T07:52:41.520Z,9.25
2023-04-18T07:54:44.356Z,9.34
2023-04-18T07:56:47.873Z,9.61
2023-04-18T07:58:50.751Z,9.61
2023-04-18T08:00:55.010Z,9.62
2023-04-18T08:02:58.017Z,9.54
2023-04-18T08:05:01.293Z,9.79
2023-04-18T08:07:04.368Z,9.79
2023-04-18T08:09:07.425Z,9.70
2023-04-18T08:11:10.769Z,9.79
2023-04-18T08:13:14.107Z,9.87
2023-04-18T08:15:16.982Z,9.79
2023-04-18T08:17:21.245Z,9.86
2023-04-18T08:19:24.307Z,9.95
2023-04-18T08:21:27.474Z,9.99
2023-04-18T08:23:30.348Z,9.76
2023-04-18T08:25:33.507Z,9.67
2023-04-18T08:27:36.587Z,9.47
2023-04-18T08:29:39.685Z,9.68
2023-04-18T08:31:42.580Z,9.56
2023-04-18T08:33:46.914Z,9.70
2023-04-18T08:35:50.256Z,9.46
2023-04-18T08:37:53.305Z,9.53
2023-04-18T08:39:56.187Z,9.44
2023-04-18T08:42:00.467Z,9.36
2023-04-18T08:44:03.592Z,9.19
2023-04-18T08:46:06.685Z,9.41
2023-04-18T08:48:13.154Z,9.46
2023-04-18T08:50:18.447Z,9.64
2023-04-18T08:52:21.791Z,9.85
2023-04-18T08:54:27.248Z,9.82
2023-04-18T08:56:30.340Z,9.83
2023-04-18T08:58:34.915Z,9.86
2023-04-18T09:00:38.560Z,9.68
2023-04-18T09:02:43.688Z,9.61
2023-04-18T09:04:49.422Z,9.64
2023-04-18T09:06:54.227Z,9.81
2023-04-18T09:08:58.879Z,9.82
2023-04-18T09:11:23.963Z,9.90
2023-04-18T09:13:39.623Z,9.70
2023-04-18T09:15:45.612Z,9.91
2023-04-18T09:17:51.015Z,10.01
2023-04-18T09:19:54.542Z,9.94
2023-04-18T09:22:04.535Z,9.84
2023-04-18T09:24:20.922Z,9.83
2023-04-18T09:26:34.601Z,9.80
2023-04-18T09:28:37.543Z,9.82
2023-04-18T09:30:43.063Z,9.96
2023-04-18T09:32:47.366Z,10.03
2023-04-18T09:34:50.281Z,10.05
2023-04-18T09:37:11.465Z,10.23
2023-04-18T09:39:27.891Z,10.32
2023-04-18T09:41:33.674Z,10.35
2023-04-18T09:43:36.607Z,10.17
2023-04-18T09:45:43.443Z,10.34
2023-04-18T09:47:46.583Z,10.41
2023-04-18T09:49:49.766Z,10.59
2023-04-18T09:51:56.227Z,10.69
2023-04-18T09:54:01.651Z,10.75
2023-04-18T09:56:07.413Z,10.65
2023-04-18T09:58:11.471Z,10.65
2023-04-18T10:00:20.260Z,10.82
2023-04-18T10:02:24.084Z,11.02
2023-04-18T10:04:28.439Z,11.11
2023-04-18T10:06:33.418Z,11.41
2023-04-18T10:08:36.302Z,11.46
2023-04-18T10:10:41.467Z,11.62
2023-04-18T10:12:47.822Z,11.61
2023-04-18T10:14:52.394Z,11.58
2023-04-18T10:16:56.205Z,11.70
2023-04-18T10:18:59.689Z,11.89
2023-04-18T10:21:04.105Z,12.05
2023-04-18T10:23:37.215Z,12.04
2023-04-18T10:25:52.311Z,12.19
2023-04-18T10:27:57.966Z,12.10
2023-04-18T10:30:01.431Z,12.30
2023-04-18T10:32:07.555Z,12.29
2023-04-18T10:34:17.414Z,12.55
2023-04-18T10:36:21.779Z,12.31
2023-04-18T10:38:25.161Z,12.70
2023-04-18T10:40:33.517Z,12.65
2023-04-18T10:43:02.895Z,12.42
2023-04-18T10:45:18.799Z,12.46
2023-04-18T10:47:26.041Z,12.55
2023-04-18T10:49:34.210Z,12.53
2023-04-18T10:51:37.147Z,12.83
2023-04-18T10:53:40.050Z,12.98
2023-04-18T10:55:45.062Z,12.88
2023-04-18T10:57:50.485Z,12.72
2023-04-18T10:59:55.144Z,12.96
2023-04-18T11:02:00.695Z,12.83
2023-04-18T11:04:12.528Z,12.71
2023-04-18T11:06:15.912Z,12.91
2023-04-18T11:08:25.239Z,13.41
2023-04-18T11:10:28.378Z,13.24
2023-04-18T11:12:33.222Z,13.10
2023-04-18T11:14:41.889Z,13.21
2023-04-18T11:16:46.145Z,12.94
2023-04-18T11:18:49.048Z,13.16
2023-04-18T11:20:54.356Z,13.36
2023-04-18T11:22:58.358Z,13.41
2023-04-18T11:25:01.801Z,13.41
2023-04-18T11:27:04.974Z,13.50
2023-04-18T11:29:07.870Z,13.37
2023-04-18T11:31:10.839Z,13.52
2023-04-18T11:33:15.817Z,13.81
2023-04-18T11:35:19.438Z,13.81
2023-04-18T11:37:22.958Z,13.94
2023-04-18T11:39:25.916Z,13.81
2023-04-18T11:41:28.994Z,13.90
2023-04-18T11:43:31.867Z,13.65
2023-04-18T11:45:34.950Z,13.94
2023-04-18T11:47:39.903Z,13.93
2023-04-18T11:49:44.255Z,14.06
2023-04-18T11:51:48.169Z,14.05
2023-04-18T11:53:51.204Z,13.68
2023-04-18T11:55:56.022Z,13.77
2023-04-18T11:58:00.517Z,13.91
2023-04-18T12:00:04.040Z,13.18
2023-04-18T12:02:16.661Z,13.00
2023-04-18T12:04:23.572Z,13.29
2023-04-18T12:06:28.188Z,13.18
2023-04-18T12:08:32.983Z,13.42
2023-04-18T12:10:36.969Z,13.58
2023-04-18T12:12:48.894Z,13.61
2023-04-18T12:14:59.779Z,13.56
2023-04-18T12:17:04.598Z,13.75
2023-04-18T12:19:11.312Z,13.91
2023-04-18T12:21:17.127Z,13.93
2023-04-18T12:23:35.548Z,13.49
2023-04-18T12:25:38.910Z,13.66
2023-04-18T12:27:51.755Z,13.76
2023-04-18T12:29:54.703Z,14.04
2023-04-18T12:31:58.007Z,14.06
2023-04-18T12:34:00.943Z,14.25
2023-04-18T12:36:05.306Z,14.13
2023-04-18T12:38:08.415Z,14.36
2023-04-18T12:40:14.064Z,14.36
2023-04-18T12:42:17.479Z,14.74
2023-04-18T12:44:20.872Z,14.46
2023-04-18T12:46:23.750Z,14.32
2023-04-18T12:48:26.692Z,14.58
2023-04-18T12:50:29.578Z,14.52
2023-04-18T12:52:33.003Z,14.80
2023-04-18T12:54:37.989Z,14.67
2023-04-18T12:56:42.419Z,14.42
2023-04-18T12:58:46.005Z,14.55
2023-04-18T13:00:49.008Z,14.41
2023-04-18T13:02:53.601Z,14.86
2023-04-18T13:04:57.191Z,14.53
2023-04-18T13:07:01.065Z,14.49
2023-04-18T13:09:04.511Z,14.21
2023-04-18T13:11:07.902Z,14.42
2023-04-18T13:13:12.315Z,14.94
2023-04-18T13:15:15.838Z,15.31
2023-04-18T13:17:18.727Z,15.68
2023-04-18T13:19:22.335Z,15.62
2023-04-18T13:21:26.355Z,15.56
2023-04-18T13:23:29.415Z,15.27
2023-04-18T13:25:33.055Z,15.12
2023-04-18T13:27:36.306Z,15.53
2023-04-18T13:29:42.311Z,15.65
2023-04-18T13:31:45.300Z,16.02
2023-04-18T13:33:48.323Z,16.12
2023-04-18T13:35:52.593Z,16.29
2023-04-18T13:37:57.033Z,16.01
2023-04-18T13:40:00.392Z,15.64
2023-04-18T13:42:05.105Z,16.00
2023-04-18T13:44:10.511Z,15.81
2023-04-18T13:46:15.120Z,15.68
2023-04-18T13:48:18.050Z,15.92
2023-04-18T13:50:21.280Z,16.17
2023-04-18T13:52:24.213Z,16.70
2023-04-18T13:54:28.025Z,17.16
2023-04-18T13:56:30.931Z,16.93
2023-04-18T13:58:33.933Z,16.93
2023-04-18T14:00:37.193Z,16.30
2023-04-18T14:02:41.994Z,16.57
2023-04-18T14:04:45.077Z,16.62
2023-04-18T14:06:48.868Z,16.57
2023-04-18T14:08:51.964Z,16.52
2023-04-18T14:10:54.839Z,16.56
2023-04-18T14:12:58.190Z,16.40
2023-04-18T14:15:01.214Z,16.75
2023-04-18T14:17:04.109Z,16.66
2023-04-18T14:19:08.322Z,16.30
2023-04-18T14:21:11.909Z,16.34
2023-04-18T14:23:15.002Z,16.31
2023-04-18T14:25:18.969Z,16.38
2023-04-18T14:27:21.872Z,16.18
2023-04-18T14:29:24.740Z,15.58
2023-04-18T14:31:28.187Z,15.80
2023-04-18T14:33:31.138Z,15.65
2023-04-18T14:35:35.393Z,15.83
2023-04-18T14:37:38.581Z,15.45
2023-04-18T14:39:41.445Z,15.95
2023-04-18T14:41:45.832Z,16.13
2023-04-18T14:43:49.201Z,16.07
2023-04-18T14:45:52.151Z,15.74
2023-04-18T14:47:55.776Z,15.87
2023-04-18T14:49:59.060Z,15.91
2023-04-18T14:52:03.350Z,15.47
2023-04-18T14:54:06.696Z,15.18
2023-04-18T14:56:09.676Z,15.70
2023-04-18T14:58:12.533Z,15.47
2023-04-18T15:00:16.092Z,15.50
2023-04-18T15:02:20.199Z,15.76
2023-04-18T15:04:23.657Z,15.42
2023-04-18T15:06:28.464Z,15.76
2023-04-18T15:08:37.152Z,15.43
2023-04-18T15:10:43.140Z,15.52
2023-04-18T15:12:48.504Z,15.29
2023-04-18T15:14:51.497Z,15.23
2023-04-18T15:16:55.643Z,15.10
2023-04-18T15:19:00.406Z,15.03
2023-04-18T15:21:04.986Z,15.11
2023-04-18T15:23:10.844Z,14.79
2023-04-18T15:25:17.124Z,14.92
2023-04-18T15:27:21.286Z,15.02
2023-04-18T15:29:26.326Z,15.00
2023-04-18T15:31:29.932Z,15.01
2023-04-18T15:33:34.339Z,14.76
2023-04-18T15:35:37.245Z,14.72
2023-04-18T15:37:40.912Z,15.01
2023-04-18T15:39:47.211Z,14.90
2023-04-18T15:41:53.417Z,14.99
2023-04-18T15:43:59.403Z,15.07
2023-04-18T15:46:03.580Z,15.43
2023-04-18T15:48:08.269Z,15.11
2023-04-18T15:50:12.398Z,15.11
2023-04-18T15:52:17.904Z,14.93
2023-04-18T15:54:25.135Z,15.15
2023-04-18T15:56:29.705Z,15.32
2023-04-18T15:58:38.149Z,15.23
2023-04-18T16:00:44.549Z,15.21
2023-04-18T16:02:48.001Z,15.32
2023-04-18T16:04:53.235Z,15.45
2023-04-18T16:06:58.205Z,15.50
2023-04-18T16:09:05.432Z,15.40
2023-04-18T16:11:08.995Z,15.47
2023-04-18T16:13:17.277Z,15.37
2023-04-18T16:15:24.335Z,15.48
2023-04-18T16:17:29.551Z,15.42
2023-04-18T16:19:39.333Z,15.55
2023-04-18T16:21:47.185Z,15.46
2023-04-18T16:23:51.748Z,15.42
2023-04-18T16:25:57.671Z,15.03
2023-04-18T16:28:00.960Z,14.92
2023-04-18T16:30:06.695Z,14.65
2023-04-18T16:32:12.360Z,14.78
2023-04-18T16:34:15.733Z,15.01
2023-04-18T16:36:19.901Z,14.88
2023-04-18T16:38:25.485Z,14.80
2023-04-18T16:40:30.686Z,14.96
2023-04-18T16:42:35.735Z,14.92
2023-04-18T16:44:39.342Z,15.04
2023-04-18T16:46:42.840Z,14.78
2023-04-18T16:48:49.043Z,14.68
2023-04-18T16:50:54.237Z,14.71
2023-04-18T16:52:57.262Z,14.60
2023-04-18T16:55:03.285Z,14.55
2023-04-18T16:57:07.318Z,14.47
2023-04-18T16:59:11.130Z,14.64
2023-04-18T17:01:15.574Z,14.54
2023-04-18T17:03:18.790Z,14.45
2023-04-18T17:05:24.008Z,14.29
2023-04-18T17:07:27.043Z,14.20
2023-04-18T17:09:37.324Z,14.35
2023-04-18T17:11:42.348Z,14.35
2023-04-18T17:13:45.689Z,14.26
2023-04-18T17:15:51.877Z,14.07
2023-04-18T17:17:56.591Z,14.15
2023-04-18T17:19:59.970Z,14.25
2023-04-18T17:22:04.774Z,14.25
2023-04-18T17:24:08.584Z,14.16
2023-04-18T17:26:11.575Z,14.07
2023-04-18T17:28:15.181Z,13.98
2023-04-18T17:30:21.524Z,14.15
2023-04-18T17:32:24.671Z,13.98
2023-04-18T17:34:27.843Z,13.76
2023-04-18T17:36:30.863Z,13.66
2023-04-18T17:38:35.182Z,13.66
2023-04-18T17:40:39.281Z,13.69
2023-04-18T17:42:42.695Z,13.76
2023-04-18T17:44:45.751Z,13.64
2023-04-18T17:46:50.428Z,13.57
2023-04-18T17:48:53.745Z,13.52
2023-04-18T17:50:56.609Z,13.45
2023-04-18T17:52:59.739Z,13.40
2023-04-18T17:55:04.336Z,13.35
2023-04-18T17:57:07.356Z,13.40
2023-04-18T17:59:10.891Z,13.32
2023-04-18T18:01:16.748Z,13.30
2023-04-18T18:03:20.674Z,13.14
2023-04-18T18:05:25.978Z,13.10
2023-04-18T18:07:30.975Z,13.17
2023-04-18T18:09:34.624Z,13.16
2023-04-18T18:11:40.010Z,13.00
2023-04-18T18:13:43.111Z,13.05
2023-04-18T18:15:46.220Z,13.04
2023-04-18T18:18:02.986Z,13.03
2023-04-18T18:20:09.769Z,13.10
2023-04-18T18:22:12.744Z,12.91
2023-04-18T18:24:15.641Z,12.77
2023-04-18T18:26:18.520Z,12.85
2023-04-18T18:28:22.843Z,12.76
2023-04-18T18:30:25.743Z,12.65
2023-04-18T18:32:28.633Z,12.69
2023-04-18T18:34:32.110Z,12.60
2023-04-18T18:36:35.035Z,12.63
2023-04-18T18:38:37.969Z,12.52
2023-04-18T18:40:40.851Z,12.49
2023-04-18T18:42:43.719Z,12.49
2023-04-18T18:44:48.181Z,12.54
2023-04-18T18:46:51.173Z,12.46
2023-04-18T18:48:54.163Z,12.38
2023-04-18T18:50:58.272Z,12.42
2023-04-18T18:53:01.774Z,12.42
2023-04-18T18:55:04.992Z,12.41
2023-04-18T18:57:08.431Z,12.39
2023-04-18T18:59:11.402Z,12.33
2023-04-18T19:01:16.087Z,12.24
2023-04-18T19:03:21.204Z,12.24
2023-04-18T19:05:24.866Z,12.14
2023-04-18T19:07:29.875Z,12.14
2023-04-18T19:09:33.279Z,12.16
2023-04-18T19:11:37.183Z,12.16
2023-04-18T19:13:40.310Z,12.04
2023-04-18T19:15:43.315Z,11.92
2023-04-18T19:17:47.686Z,11.96
2023-04-18T19:19:50.623Z,11.98
2023-04-18T19:21:53.833Z,12.03
2023-04-18T19:23:56.889Z,12.03
2023-04-18T19:25:59.733Z,12.04
2023-04-18T19:28:02.583Z,11.99
2023-04-18T19:30:06.178Z,11.93
2023-04-18T19:32:09.143Z,11.98
2023-04-18T19:34:13.701Z,11.95
2023-04-18T19:36:17.028Z,11.82
2023-04-18T19:38:20.068Z,11.72
2023-04-18T19:40:26.674Z,11.65
2023-04-18T19:42:29.494Z,11.64
2023-04-18T19:44:32.985Z,11.48
2023-04-18T19:46:36.266Z,11.51
2023-04-18T19:48:39.267Z,11.41
2023-04-18T19:50:44.744Z,11.42
2023-04-18T19:52:47.904Z,11.43
2023-04-18T19:54:50.874Z,11.38
2023-04-18T19:56:54.068Z,11.39
2023-04-18T19:58:57.947Z,11.36
2023-04-18T20:01:01.226Z,11.49
2023-04-18T20:03:04.389Z,11.50
2023-04-18T20:05:09.293Z,11.50
2023-04-18T20:07:13.857Z,11.54
2023-04-18T20:09:17.477Z,11.43
2023-04-18T20:11:20.836Z,11.51
2023-04-18T20:13:23.712Z,11.57
2023-04-18T20:15:26.620Z,11.58
2023-04-18T20:17:30.528Z,11.56
2023-04-18T20:19:33.587Z,11.44
2023-04-18T20:21:36.586Z,11.47
2023-04-18T20:23:42.552Z,11.42
2023-04-18T20:25:45.911Z,11.37
2023-04-18T20:27:49.215Z,11.47
2023-04-18T20:29:52.653Z,11.50
2023-04-18T20:31:55.858Z,11.59
2023-04-18T20:33:59.927Z,11.56
2023-04-18T20:36:03.881Z,11.54
2023-04-18T20:38:11.223Z,11.57
2023-04-18T20:40:16.679Z,11.60
2023-04-18T20:42:19.753Z,11.40
2023-04-18T20:44:24.854Z,11.47
2023-04-18T20:46:28.001Z,11.47
2023-04-18T20:48:30.968Z,11.54
2023-04-18T20:50:33.939Z,11.49
2023-04-18T20:52:36.782Z,11.55
2023-04-18T20:54:39.661Z,11.39
2023-04-18T20:56:44.092Z,11.37
2023-04-18T20:58:47.080Z,11.39
2023-04-18T21:00:50.436Z,11.34
2023-04-18T21:02:53.519Z,11.38
2023-04-18T21:04:56.497Z,11.30
2023-04-18T21:07:01.308Z,11.34
2023-04-18T21:09:04.386Z,11.39
2023-04-18T21:11:07.283Z,11.45
2023-04-18T21:13:12.663Z,11.39
2023-04-18T21:15:16.196Z,11.55
2023-04-18T21:17:19.148Z,11.51
2023-04-18T21:19:22.092Z,11.49
2023-04-18T21:21:25.616Z,11.56
2023-04-18T21:23:28.607Z,11.55
2023-04-18T21:25:31.485Z,11.62
2023-04-18T21:27:34.448Z,11.61
2023-04-18T21:29:38.680Z,11.62
2023-04-18T21:31:41.602Z,11.57
2023-04-18T21:33:44.872Z,11.59
2023-04-18T21:35:47.772Z,11.63
2023-04-18T21:37:51.041Z,11.66
2023-04-18T21:39:53.885Z,11.69
2023-04-18T21:41:58.247Z,11.71
2023-04-18T21:44:01.383Z,11.74
2023-04-18T21:46:06.142Z,11.82
2023-04-18T21:48:10.662Z,11.72
2023-04-18T21:50:13.603Z,11.76
2023-04-18T21:52:16.925Z,11.67
2023-04-18T21:54:19.773Z,11.66
2023-04-18T21:56:22.694Z,11.67
2023-04-18T21:58:25.735Z,11.71
2023-04-18T22:00:28.852Z,11.83
2023-04-18T22:02:33.316Z,11.86
2023-04-18T22:04:37.977Z,11.75
2023-04-18T22:06:41.875Z,11.83
2023-04-18T22:08:45.332Z,11.74
2023-04-18T22:10:51.292Z,11.82
2023-04-18T22:12:54.611Z,11.83
2023-04-18T22:14:58.584Z,11.84
2023-04-18T22:17:03.300Z,11.88
2023-04-18T22:19:09.095Z,11.80
2023-04-18T22:21:14.384Z,11.90
2023-04-18T22:23:22.453Z,11.70
2023-04-18T22:25:25.495Z,11.89
2023-04-18T22:27:28.466Z,11.90
2023-04-18T22:29:31.359Z,11.95
2023-04-18T22:31:34.218Z,11.96
2023-04-18T22:33:37.321Z,11.92
2023-04-18T22:35:41.822Z,12.09
2023-04-18T22:37:44.676Z,12.03
2023-04-18T22:39:47.539Z,12.11
2023-04-18T22:41:50.506Z,12.07
2023-04-18T22:43:54.692Z,12.07
2023-04-18T22:45:57.648Z,12.03
2023-04-18T22:48:01.022Z,12.05
2023-04-18T22:50:04.038Z,12.11
2023-04-18T22:52:08.382Z,12.13
2023-04-18T22:54:11.268Z,12.18
2023-04-18T22:56:14.136Z,12.14
2023-04-18T22:58:17.283Z,11.97
2023-04-18T23:00:20.845Z,12.09
2023-04-18T23:02:23.801Z,12.09
2023-04-18T23:04:31.548Z,12.07
2023-04-18T23:06:39.811Z,12.13
2023-04-18T23:08:44.119Z,12.07
2023-04-18T23:10:47.005Z,12.12
2023-04-18T23:12:49.876Z,12.03
2023-04-18T23:14:52.795Z,12.15
2023-04-18T23:16:55.717Z,12.16
2023-04-18T23:18:58.641Z,12.07
2023-04-18T23:21:02.204Z,12.12
2023-04-18T23:23:05.019Z,12.15
2023-04-18T23:25:10.828Z,11.99
2023-04-18T23:27:14.077Z,12.07
2023-04-18T23:29:16.958Z,12.02
2023-04-18T23:31:20.210Z,11.94
2023-04-18T23:33:23.277Z,11.98
2023-04-18T23:35:26.123Z,11.98
2023-04-18T23:37:29.814Z,11.94
2023-04-18T23:39:32.967Z,11.86
2023-04-18T23:41:37.234Z,11.89
2023-04-18T23:43:40.108Z,11.89
2023-04-18T23:45:43.099Z,11.91
2023-04-18T23:47:46.231Z,11.87
2023-04-18T23:49:49.125Z,11.81
2023-04-18T23:51:52.106Z,11.77
2023-04-18T23:53:55.178Z,11.78
2023-04-18T23:55:58.093Z,11.77
2023-04-18T23:58:02.778Z,11.82
